• Join FlightAware (Why Join?)
  • Login
  • US Flag 
08:20AM EDT


 

Airport Tracker/Info


-or-


 

Live Flight TrackerFlight Track Log ✈ FLG3721 ✈ 06-May-2013 ✈ KDTW - KCRW

Flight Track Log - Related Links

Times and Time Zones

All times are in EDT time to prevent confusion due to time zone crossing. See the FLG3721 flight status page for this flight to view local times or setup timezone preferences in your user account.

Time Position Orientation Groundspeed Altitude Reporting Facility
EDT Latitude Longitude Course Direction KTS MPH feet Rate Location/Type
02:07PM 42.2419 -83.3236 102° East 150 173 2,300  Level Cleveland Center
02:08PM 42.2808 -83.2719 44° Northeast 238 274 3,800 2,040 Climbing Cleveland Center
02:10PM 42.1346 -82.8090 101° East  Level FlightAware Approximate
02:10PM 42.1516 -83.2130 90° East  Level Estimated
02:10PM 42.2411 -83.0850 90° East 276 318 8,700  Level Cleveland Center
02:11PM 42.1092 -82.6750 98° East  Level FlightAware Approximate
02:12PM 42.0857 -82.5404 114° Southeast  Level FlightAware Approximate
02:12PM 42.1139 -83.0330 101° East  Level Estimated
02:12PM 42.1850 -82.8753 101° East 316 364 12,000  Level Cleveland Center
02:13PM 42.0733 -82.4029 102° East  Level FlightAware Approximate
02:14PM 42.1119 -82.7018 98° East  Level FlightAware Approximate
02:14PM 42.1231 -82.6353 98° East 332 382 15,500  Level Cleveland Center
02:16PM 42.0805 -82.4488 102° East  Level FlightAware Approximate
02:17PM 42.0481 -82.2386 145° Southeast 358 412 19,600  Level Cleveland Center
02:19PM 41.9656 -82.0131 116° Southeast 352 405 21,600 960 Climbing Cleveland Center
02:21PM 41.8497 -81.8997 143° Southeast  Level FlightAware Approximate
02:21PM 41.7903 -81.8447 143° Southeast 383 441 23,600  Level Cleveland Center
02:22PM 41.6956 -81.7539 144° Southeast 389 448 24,600 660 Climbing Cleveland Center
02:23PM 41.6722 -81.7242 145° Southeast  Level FlightAware Approximate
02:23PM 41.6067 -81.6717 145° Southeast 396 456 25,000  Level Cleveland Center
02:25PM 41.4894 -81.5617 145° Southeast  Level FlightAware Approximate
02:25PM 41.4164 -81.4914 145° Southeast 416 479 25,000  Level Cleveland Center
02:26PM 41.3192 -81.3986 144° Southeast 421 484 25,000  Level Cleveland Center
02:28PM 41.2023 -81.2925 146° Southeast  Level FlightAware Approximate
02:28PM 41.1369 -81.2311 146° Southeast 422 486 25,000  Level Cleveland Center
02:29PM 41.0222 -81.2217 176° South 403 464 25,000  Level Cleveland Center
02:32PM 40.7200 -81.2836 189° South 435 501 25,000  Level Indianapolis Center
02:33PM 40.6003 -81.3097 189° South 431 496 25,000  Level Indianapolis Center
02:33PM 40.5506 -81.3208 190° South 429 494 25,000  Level Cleveland Center
02:35PM 40.3617 -81.3603 189° South 430 495 25,000  Level Indianapolis Center
02:36PM 40.2419 -81.3853 189° South 432 497 25,000  Level Indianapolis Center
02:37PM 40.1269 -81.4292 196° South 430 495 25,000  Level Indianapolis Center
02:38PM 39.9894 -81.4792 196° South 436 502 25,000 -900 Level Indianapolis Center
02:40PM 39.8201 -81.4818 181° South  Level FlightAware Approximate
02:41PM 39.6258 -81.5467 181° South 428 493 21,500  Level Indianapolis Center
02:43PM 39.4626 -81.5342 189° South  Level FlightAware Approximate
02:44PM 39.3028 -81.6036 180° South 376 433 17,900  Level Indianapolis Center
02:45PM 39.1997 -81.6214 188° South 373 429 16,800 -1,380 Descending Indianapolis Center
02:47PM 39.0528 -81.6302 183° South  Level FlightAware Approximate
02:48PM 38.8992 -81.6753 186° South 322 371 12,400  Level Indianapolis Center
02:50PM 38.7878 -81.6667 180° South  Level FlightAware Approximate
02:50PM 38.7629 -81.6537 190° South  Level Estimated
02:50PM 38.7525 -81.7053 190° South 265 305 9,300  Level Indianapolis Center
02:52PM 38.6252 -81.6672 167° South  Level Estimated
02:52PM 38.5983 -81.7353 167° South 251 289 7,100  Level Indianapolis Center
02:54PM 38.4750 -81.7298 186° South  Level FlightAware Approximate
02:54PM 38.4858 -81.6632 201° Southwest  Level Estimated
02:54PM 38.4611 -81.7978 201° Southwest 261 300 4,900  Level Indianapolis Center
02:55PM 38.3928 -81.8083 187° South 246 283 3,400 -960 Descending Indianapolis Center
02:56PM 38.3269 -81.8053 178° South 238 274 3,000 -180 Descending Indianapolis Center
02:58PM 38.2822 -81.7136 122° Southeast 186 214 3,000 -300 Level Indianapolis Center
03:00PM 38.3403 -81.6417 44° Northeast 150 173 1,900 -600 Descending Indianapolis Center
03:02PM 38.3689 -81.6047 45° Northeast 142 163 1,300 -600 Descending Indianapolis Center